TimeEDT,TemperatureF,Dew PointF,Humidity,Sea Level PressureIn,VisibilityMPH,Wind Direction,Wind SpeedMPH,Gust SpeedMPH,PrecipitationIn,Events,Conditions,WindDirDegrees,DateUTC
12:53 AM,73.9,73.0,97,30.10,10.0,Calm,Calm,-,N/A,,Clear,0,2013-07-03 04:53:00
1:53 AM,73.9,73.0,97,30.09,10.0,Calm,Calm,-,N/A,,Clear,0,2013-07-03 05:53:00
2:53 AM,73.0,72.0,96,30.08,10.0,Calm,Calm,-,N/A,,Clear,0,2013-07-03 06:53:00
3:53 AM,75.0,73.9,96,30.08,10.0,ESE,5.8,-,N/A,,Clear,120,2013-07-03 07:53:00
4:53 AM,75.0,73.9,96,30.09,10.0,SE,5.8,-,N/A,,Clear,130,2013-07-03 08:53:00
5:53 AM,77.0,75.0,94,30.09,10.0,ESE,5.8,-,N/A,,Clear,110,2013-07-03 09:53:00
6:53 AM,75.9,73.9,94,30.10,10.0,SE,4.6,-,N/A,,Clear,140,2013-07-03 10:53:00
7:53 AM,79.0,73.9,84,30.12,10.0,SE,11.5,-,N/A,,Partly Cloudy,140,2013-07-03 11:53:00
8:53 AM,82.9,75.9,79,30.12,10.0,SE,9.2,-,N/A,,Clear,130,2013-07-03 12:53:00
9:53 AM,84.0,75.9,76,30.13,10.0,SE,12.7,-,N/A,,Clear,130,2013-07-03 13:53:00
10:53 AM,86.0,77.0,74,30.14,10.0,SE,16.1,-,N/A,,Scattered Clouds,140,2013-07-03 14:53:00
11:53 AM,87.1,75.9,69,30.14,10.0,SE,17.3,24.2,N/A,,Clear,130,2013-07-03 15:53:00
12:53 PM,87.1,77.0,72,30.13,10.0,SE,19.6,25.3,N/A,,Clear,130,2013-07-03 16:53:00
1:53 PM,87.1,77.0,72,30.12,10.0,SE,19.6,26.5,N/A,,Clear,130,2013-07-03 17:53:00
2:53 PM,84.9,75.0,72,30.10,10.0,SE,18.4,25.3,N/A,,Clear,130,2013-07-03 18:53:00
3:53 PM,84.9,75.0,72,30.09,10.0,SE,16.1,24.2,N/A,,Partly Cloudy,130,2013-07-03 19:53:00
4:53 PM,84.9,75.0,72,30.09,10.0,SE,16.1,27.6,N/A,,Clear,130,2013-07-03 20:53:00
5:53 PM,84.9,75.9,74,30.09,10.0,SE,17.3,25.3,N/A,,Clear,130,2013-07-03 21:53:00
6:53 PM,82.9,75.9,79,30.10,10.0,SE,13.8,21.9,N/A,,Clear,140,2013-07-03 22:53:00
7:53 PM,80.1,75.0,85,30.12,10.0,SE,6.9,-,0.00,,Clear,130,2013-07-03 23:53:00
8:53 PM,79.0,72.0,79,30.12,10.0,SSE,9.2,-,N/A,,Partly Cloudy,150,2013-07-04 00:53:00
9:53 PM,79.0,73.0,82,30.14,10.0,SSE,8.1,-,N/A,,Clear,150,2013-07-04 01:53:00
10:53 PM,78.1,73.0,84,30.16,10.0,SE,6.9,-,N/A,,Partly Cloudy,130,2013-07-04 02:53:00
11:53 PM,78.1,73.0,84,30.15,10.0,SSE,5.8,-,N/A,,Clear,150,2013-07-04 03:53:00